sensor_id;sensor_type;location;lat;lon;timestamp;pressure;altitude;pressure_sealevel;temperature;humidity
17615;BME280;8926;49.720;6.576;2023-02-23T00:00:51;99330.16;;;11.11;91.68
17615;BME280;8926;49.720;6.576;2023-02-23T00:03:17;99334.44;;;11.12;91.08
17615;BME280;8926;49.720;6.576;2023-02-23T00:05:42;99337.06;;;11.12;90.96
17615;BME280;8926;49.720;6.576;2023-02-23T00:08:08;99333.59;;;11.11;91.41
17615;BME280;8926;49.720;6.576;2023-02-23T00:10:35;99330.16;;;11.11;90.87
17615;BME280;8926;49.720;6.576;2023-02-23T00:13:00;99333.72;;;11.10;91.63
17615;BME280;8926;49.720;6.576;2023-02-23T00:15:26;99332.03;;;11.09;90.31
17615;BME280;8926;49.720;6.576;2023-02-23T00:17:53;99333.91;;;11.07;91.76
17615;BME280;8926;49.720;6.576;2023-02-23T00:20:20;99336.41;;;11.08;90.78
17615;BME280;8926;49.720;6.576;2023-02-23T00:22:52;99334.84;;;11.06;90.18
17615;BME280;8926;49.720;6.576;2023-02-23T00:25:18;99330.56;;;11.05;92.15
17615;BME280;8926;49.720;6.576;2023-02-23T00:27:43;99327.94;;;11.05;90.70
17615;BME280;8926;49.720;6.576;2023-02-23T00:30:14;99334.09;;;11.04;91.55
17615;BME280;8926;49.720;6.576;2023-02-23T00:32:42;99328.88;;;11.04;91.86
17615;BME280;8926;49.720;6.576;2023-02-23T00:35:08;99328.88;;;11.04;90.74
17615;BME280;8926;49.720;6.576;2023-02-23T00:37:37;99338.50;;;11.03;91.36
17615;BME280;8926;49.720;6.576;2023-02-23T00:40:02;99321.97;;;11.03;91.96
17615;BME280;8926;49.720;6.576;2023-02-23T00:42:31;99330.75;;;11.02;92.20
17615;BME280;8926;49.720;6.576;2023-02-23T00:44:57;99330.75;;;11.02;90.80
17615;BME280;8926;49.720;6.576;2023-02-23T00:47:22;99320.28;;;11.02;91.54
17615;BME280;8926;49.720;6.576;2023-02-23T00:49:47;99325.53;;;11.02;90.94
17615;BME280;8926;49.720;6.576;2023-02-23T00:52:13;99327.28;;;11.01;91.70
17615;BME280;8926;49.720;6.576;2023-02-23T00:54:39;99321.97;;;11.03;91.67
17615;BME280;8926;49.720;6.576;2023-02-23T00:57:04;99321.13;;;11.02;92.81
17615;BME280;8926;49.720;6.576;2023-02-23T00:59:29;99321.97;;;11.03;91.13
17615;BME280;8926;49.720;6.576;2023-02-23T01:01:55;99321.13;;;11.02;91.34
17615;BME280;8926;49.720;6.576;2023-02-23T01:04:20;99323.66;;;11.04;90.83
17615;BME280;8926;49.720;6.576;2023-02-23T01:06:47;99318.41;;;11.04;90.15
17615;BME280;8926;49.720;6.576;2023-02-23T01:09:14;99320.28;;;11.02;90.48
17615;BME280;8926;49.720;6.576;2023-02-23T01:11:45;99324.88;;;10.98;90.65
17615;BME280;8926;49.720;6.576;2023-02-23T01:14:11;99317.97;;;10.97;90.85
17615;BME280;8926;49.720;6.576;2023-02-23T01:16:36;99322.25;;;10.98;91.77
17615;BME280;8926;49.720;6.576;2023-02-23T01:19:04;99319.66;;;10.98;91.31
17615;BME280;8926;49.720;6.576;2023-02-23T01:21:34;99320.50;;;10.99;91.64
17615;BME280;8926;49.720;6.576;2023-02-23T01:24:00;99317.88;;;10.99;91.54
17615;BME280;8926;49.720;6.576;2023-02-23T01:26:31;99324.03;;;10.98;91.85
17615;BME280;8926;49.720;6.576;2023-02-23T01:29:01;99317.13;;;10.97;91.60
17615;BME280;8926;49.720;6.576;2023-02-23T01:31:28;99324.03;;;10.98;91.94
17615;BME280;8926;49.720;6.576;2023-02-23T01:33:54;99315.34;;;10.97;92.08
17615;BME280;8926;49.720;6.576;2023-02-23T01:36:20;99322.38;;;10.97;91.48
17615;BME280;8926;49.720;6.576;2023-02-23T01:38:47;99313.59;;;10.98;91.81
17615;BME280;8926;49.720;6.576;2023-02-23T01:41:13;99317.13;;;10.97;91.08
17615;BME280;8926;49.720;6.576;2023-02-23T01:44:05;99315.47;;;10.96;92.05
17615;BME280;8926;49.720;6.576;2023-02-23T01:46:35;99310.22;;;10.96;92.23
17615;BME280;8926;49.720;6.576;2023-02-23T01:49:03;99312.09;;;10.94;92.66
17615;BME280;8926;49.720;6.576;2023-02-23T01:51:32;99315.66;;;10.93;91.02
17615;BME280;8926;49.720;6.576;2023-02-23T01:54:09;99315.66;;;10.93;92.50
17615;BME280;8926;49.720;6.576;2023-02-23T01:56:42;99325.28;;;10.92;91.71
17615;BME280;8926;49.720;6.576;2023-02-23T01:59:11;99308.75;;;10.92;92.38
17615;BME280;8926;49.720;6.576;2023-02-23T02:01:38;99307.94;;;10.91;92.38
17615;BME280;8926;49.720;6.576;2023-02-23T02:04:05;99315.88;;;10.90;92.54
17615;BME280;8926;49.720;6.576;2023-02-23T02:06:34;99313.97;;;10.92;91.23
17615;BME280;8926;49.720;6.576;2023-02-23T02:09:09;99313.16;;;10.91;91.18
17615;BME280;8926;49.720;6.576;2023-02-23T02:11:35;99310.66;;;10.90;91.61
17615;BME280;8926;49.720;6.576;2023-02-23T02:14:08;99306.47;;;10.87;91.21
17615;BME280;8926;49.720;6.576;2023-02-23T02:22:18;99313.66;;;10.83;92.87
17615;BME280;8926;49.720;6.576;2023-02-23T02:30:19;99313.94;;;10.79;92.55
17615;BME280;8926;49.720;6.576;2023-02-23T02:42:00;99306.78;;;10.68;92.17
17615;BME280;8926;49.720;6.576;2023-02-23T02:47:11;99310.34;;;10.67;93.08
17615;BME280;8926;49.720;6.576;2023-02-23T02:49:58;99307.63;;;10.69;92.81
17615;BME280;8926;49.720;6.576;2023-02-23T02:52:34;99306.19;;;10.65;93.08
17615;BME280;8926;49.720;6.576;2023-02-23T02:55:17;99301.97;;;10.62;93.21
17615;BME280;8926;49.720;6.576;2023-02-23T02:57:49;99303.66;;;10.63;92.48
17615;BME280;8926;49.720;6.576;2023-02-23T03:00:18;99295.28;;;10.58;93.18
17615;BME280;8926;49.720;6.576;2023-02-23T03:03:02;99288.38;;;10.57;93.02
17615;BME280;8926;49.720;6.576;2023-02-23T03:05:48;99291.09;;;10.56;93.73
17615;BME280;8926;49.720;6.576;2023-02-23T03:11:23;99301.97;;;10.62;93.61
17615;BME280;8926;49.720;6.576;2023-02-23T03:14:37;99300.13;;;10.64;94.16
17615;BME280;8926;49.720;6.576;2023-02-23T03:17:46;99305.53;;;10.61;93.71
17615;BME280;8926;49.720;6.576;2023-02-23T03:29:13;99309.06;;;10.60;92.67
17615;BME280;8926;49.720;6.576;2023-02-23T03:32:24;99313.47;;;10.60;91.76
17615;BME280;8926;49.720;6.576;2023-02-23T03:35:29;99319.53;;;10.60;91.78
17615;BME280;8926;49.720;6.576;2023-02-23T03:38:45;99313.56;;;10.58;91.96
17615;BME280;8926;49.720;6.576;2023-02-23T03:41:28;99315.63;;;10.53;93.16
17615;BME280;8926;49.720;6.576;2023-02-23T03:44:21;99311.31;;;10.52;92.75
17615;BME280;8926;49.720;6.576;2023-02-23T03:47:08;99327.00;;;10.52;92.94
17615;BME280;8926;49.720;6.576;2023-02-23T03:49:55;99318.97;;;10.55;92.20
17615;BME280;8926;49.720;6.576;2023-02-23T03:52:45;99315.63;;;10.53;92.54
17615;BME280;8926;49.720;6.576;2023-02-23T03:55:37;99315.72;;;10.51;92.62
17615;BME280;8926;49.720;6.576;2023-02-23T03:58:36;99316.56;;;10.52;92.51
17615;BME280;8926;49.720;6.576;2023-02-23T04:01:22;99322.63;;;10.52;92.57
17615;BME280;8926;49.720;6.576;2023-02-23T04:04:08;99323.44;;;10.53;93.33
17615;BME280;8926;49.720;6.576;2023-02-23T04:06:56;99325.13;;;10.54;93.29
17615;BME280;8926;49.720;6.576;2023-02-23T04:09:41;99328.69;;;10.53;93.73
17615;BME280;8926;49.720;6.576;2023-02-23T04:12:36;99334.75;;;10.53;92.63
17615;BME280;8926;49.720;6.576;2023-02-23T04:17:51;99332.22;;;10.52;93.29
17615;BME280;8926;49.720;6.576;2023-02-23T04:20:17;99327.00;;;10.52;93.70
17615;BME280;8926;49.720;6.576;2023-02-23T04:22:42;99333.91;;;10.53;93.46
17615;BME280;8926;49.720;6.576;2023-02-23T04:25:08;99338.28;;;10.52;93.75
17615;BME280;8926;49.720;6.576;2023-02-23T04:27:36;99333.91;;;10.53;93.42
17615;BME280;8926;49.720;6.576;2023-02-23T04:30:02;99341.63;;;10.54;93.33
17615;BME280;8926;49.720;6.576;2023-02-23T04:32:28;99352.94;;;10.55;93.39
17615;BME280;8926;49.720;6.576;2023-02-23T04:34:54;99348.53;;;10.56;92.74
17615;BME280;8926;49.720;6.576;2023-02-23T04:37:19;99344.34;;;10.53;93.10
17615;BME280;8926;49.720;6.576;2023-02-23T04:39:44;99345.28;;;10.52;92.77
17615;BME280;8926;49.720;6.576;2023-02-23T04:42:14;99349.75;;;10.50;92.36
17615;BME280;8926;49.720;6.576;2023-02-23T04:44:39;99348.81;;;10.51;92.79
17615;BME280;8926;49.720;6.576;2023-02-23T04:47:04;99351.44;;;10.51;92.76
17615;BME280;8926;49.720;6.576;2023-02-23T04:49:30;99348.06;;;10.49;92.56
17615;BME280;8926;49.720;6.576;2023-02-23T04:51:55;99348.06;;;10.49;92.32
17615;BME280;8926;49.720;6.576;2023-02-23T04:54:20;99351.63;;;10.48;92.43
17615;BME280;8926;49.720;6.576;2023-02-23T04:56:46;99349.94;;;10.47;92.14
17615;BME280;8926;49.720;6.576;2023-02-23T04:59:11;99351.72;;;10.46;92.31
17615;BME280;8926;49.720;6.576;2023-02-23T05:01:37;99349.94;;;10.47;92.42
17615;BME280;8926;49.720;6.576;2023-02-23T05:04:02;99344.72;;;10.47;92.54
17615;BME280;8926;49.720;6.576;2023-02-23T05:06:29;99351.63;;;10.48;91.82
17615;BME280;8926;49.720;6.576;2023-02-23T05:08:54;99350.78;;;10.47;92.22
17615;BME280;8926;49.720;6.576;2023-02-23T05:11:20;99355.16;;;10.47;92.32
17615;BME280;8926;49.720;6.576;2023-02-23T05:13:45;99355.16;;;10.47;92.72
17615;BME280;8926;49.720;6.576;2023-02-23T05:16:10;99353.50;;;10.46;92.34
17615;BME280;8926;49.720;6.576;2023-02-23T05:18:35;99344.91;;;10.44;92.56
17615;BME280;8926;49.720;6.576;2023-02-23T05:21:07;99347.53;;;10.44;92.17
17615;BME280;8926;49.720;6.576;2023-02-23T05:23:34;99347.53;;;10.44;92.33
17615;BME280;8926;49.720;6.576;2023-02-23T05:26:04;99350.13;;;10.44;92.21
17615;BME280;8926;49.720;6.576;2023-02-23T05:28:30;99353.69;;;10.43;92.46
17615;BME280;8926;49.720;6.576;2023-02-23T05:30:56;99346.59;;;10.45;91.69
17615;BME280;8926;49.720;6.576;2023-02-23T05:33:21;99350.13;;;10.44;92.32
17615;BME280;8926;49.720;6.576;2023-02-23T05:35:47;99357.03;;;10.45;91.12
17615;BME280;8926;49.720;6.576;2023-02-23T05:38:12;99356.09;;;10.46;91.96
17615;BME280;8926;49.720;6.576;2023-02-23T05:40:38;99355.44;;;10.42;91.90
17615;BME280;8926;49.720;6.576;2023-02-23T05:43:04;99359.84;;;10.42;92.22
17615;BME280;8926;49.720;6.576;2023-02-23T05:45:30;99358.16;;;10.41;92.46
17615;BME280;8926;49.720;6.576;2023-02-23T05:47:55;99360.97;;;10.38;92.44
17615;BME280;8926;49.720;6.576;2023-02-23T05:50:20;99354.19;;;10.35;92.22
17615;BME280;8926;49.720;6.576;2023-02-23T05:52:46;99361.16;;;10.35;92.38
17615;BME280;8926;49.720;6.576;2023-02-23T05:55:11;99369.94;;;10.34;92.36
17615;BME280;8926;49.720;6.576;2023-02-23T05:57:38;99363.03;;;10.33;92.15
17615;BME280;8926;49.720;6.576;2023-02-23T06:00:07;99361.16;;;10.35;92.10
17615;BME280;8926;49.720;6.576;2023-02-23T06:02:32;99373.28;;;10.36;92.46
17615;BME280;8926;49.720;6.576;2023-02-23T06:04:58;99367.31;;;10.34;92.43
17615;BME280;8926;49.720;6.576;2023-02-23T06:07:24;99375.16;;;10.34;92.06
17615;BME280;8926;49.720;6.576;2023-02-23T06:09:49;99371.63;;;10.35;91.93
17615;BME280;8926;49.720;6.576;2023-02-23T06:12:14;99376.84;;;10.35;91.67
17615;BME280;8926;49.720;6.576;2023-02-23T06:14:39;99375.06;;;10.35;92.08
17615;BME280;8926;49.720;6.576;2023-02-23T06:17:05;99376.84;;;10.35;92.05
17615;BME280;8926;49.720;6.576;2023-02-23T06:19:32;99383.94;;;10.33;91.63
17615;BME280;8926;49.720;6.576;2023-02-23T06:21:57;99383.09;;;10.32;91.62
17615;BME280;8926;49.720;6.576;2023-02-23T06:24:22;99383.94;;;10.33;91.82
17615;BME280;8926;49.720;6.576;2023-02-23T06:26:48;99392.69;;;10.32;91.64
17615;BME280;8926;49.720;6.576;2023-02-23T06:29:14;99387.47;;;10.32;91.60
17615;BME280;8926;49.720;6.576;2023-02-23T06:31:39;99392.69;;;10.32;91.49
17615;BME280;8926;49.720;6.576;2023-02-23T06:34:05;99392.50;;;10.35;91.91
17615;BME280;8926;49.720;6.576;2023-02-23T06:36:30;99394.94;;;10.38;91.39
17615;BME280;8926;49.720;6.576;2023-02-23T06:38:57;99400.69;;;10.43;91.06
17615;BME280;8926;49.720;6.576;2023-02-23T06:41:23;99404.03;;;10.45;90.17
17615;BME280;8926;49.720;6.576;2023-02-23T06:43:48;99406.56;;;10.46;89.87
17615;BME280;8926;49.720;6.576;2023-02-23T06:46:14;99412.63;;;10.47;89.88
17615;BME280;8926;49.720;6.576;2023-02-23T06:48:39;99410.75;;;10.49;90.35
17615;BME280;8926;49.720;6.576;2023-02-23T06:51:05;99407.22;;;10.50;89.83
17615;BME280;8926;49.720;6.576;2023-02-23T06:53:30;99417.66;;;10.50;89.73
17615;BME280;8926;49.720;6.576;2023-02-23T06:55:56;99412.44;;;10.50;89.47
17615;BME280;8926;49.720;6.576;2023-02-23T06:58:21;99415.97;;;10.49;89.44
17615;BME280;8926;49.720;6.576;2023-02-23T07:00:47;99420.28;;;10.50;89.23
17615;BME280;8926;49.720;6.576;2023-02-23T07:03:12;99424.56;;;10.51;89.19
17615;BME280;8926;49.720;6.576;2023-02-23T07:05:37;99420.09;;;10.53;89.31
17615;BME280;8926;49.720;6.576;2023-02-23T07:08:03;99429.59;;;10.54;88.99
17615;BME280;8926;49.720;6.576;2023-02-23T07:10:28;99427.81;;;10.54;89.10
17615;BME280;8926;49.720;6.576;2023-02-23T07:12:53;99423.34;;;10.57;88.69
17615;BME280;8926;49.720;6.576;2023-02-23T07:15:19;99429.41;;;10.57;89.22
17615;BME280;8926;49.720;6.576;2023-02-23T07:17:48;99431.09;;;10.58;88.82
17615;BME280;8926;49.720;6.576;2023-02-23T07:20:14;99430.16;;;10.59;88.96
17615;BME280;8926;49.720;6.576;2023-02-23T07:22:40;99443.97;;;10.61;88.98
17615;BME280;8926;49.720;6.576;2023-02-23T07:25:06;99437.81;;;10.62;88.59
17615;BME280;8926;49.720;6.576;2023-02-23T07:27:32;99444.50;;;10.66;88.79
17615;BME280;8926;49.720;6.576;2023-02-23T07:29:58;99453.09;;;10.68;88.52
17615;BME280;8926;49.720;6.576;2023-02-23T07:32:23;99449.53;;;10.69;88.73
17615;BME280;8926;49.720;6.576;2023-02-23T07:34:49;99450.28;;;10.71;88.62
17615;BME280;8926;49.720;6.576;2023-02-23T07:37:14;99454.38;;;10.75;87.99
17615;BME280;8926;49.720;6.576;2023-02-23T07:39:41;99456.06;;;10.76;87.93
17615;BME280;8926;49.720;6.576;2023-02-23T07:42:06;99452.06;;;10.71;87.87
17615;BME280;8926;49.720;6.576;2023-02-23T07:44:31;99460.16;;;10.66;87.38
17615;BME280;8926;49.720;6.576;2023-02-23T07:46:57;99457.88;;;10.62;88.07
17615;BME280;8926;49.720;6.576;2023-02-23T07:49:22;99464.13;;;10.59;88.25
17615;BME280;8926;49.720;6.576;2023-02-23T07:51:47;99463.66;;;10.52;89.70
17615;BME280;8926;49.720;6.576;2023-02-23T07:54:12;99460.94;;;10.54;89.31
17615;BME280;8926;49.720;6.576;2023-02-23T07:56:39;99460.00;;;10.55;89.23
17615;BME280;8926;49.720;6.576;2023-02-23T07:59:04;99463.38;;;10.57;88.63
17615;BME280;8926;49.720;6.576;2023-02-23T08:01:29;99460.94;;;10.54;88.47
17615;BME280;8926;49.720;6.576;2023-02-23T08:03:55;99464.50;;;10.53;89.15
17615;BME280;8926;49.720;6.576;2023-02-23T08:06:20;99460.09;;;10.53;88.76
17615;BME280;8926;49.720;6.576;2023-02-23T08:08:46;99464.50;;;10.53;89.53
17615;BME280;8926;49.720;6.576;2023-02-23T08:11:11;99465.31;;;10.53;89.05
17615;BME280;8926;49.720;6.576;2023-02-23T08:13:37;99467.00;;;10.54;88.85
17615;BME280;8926;49.720;6.576;2023-02-23T08:16:03;99474.00;;;10.54;88.71
17615;BME280;8926;49.720;6.576;2023-02-23T08:18:28;99471.38;;;10.54;88.91
17615;BME280;8926;49.720;6.576;2023-02-23T08:20:58;99474.94;;;10.53;88.73
17615;BME280;8926;49.720;6.576;2023-02-23T08:23:24;99473.91;;;10.56;88.88
17615;BME280;8926;49.720;6.576;2023-02-23T08:25:49;99470.47;;;10.55;89.23
17615;BME280;8926;49.720;6.576;2023-02-23T08:28:14;99468.69;;;10.56;89.52
17615;BME280;8926;49.720;6.576;2023-02-23T08:30:40;99473.63;;;10.60;89.20
17615;BME280;8926;49.720;6.576;2023-02-23T08:33:05;99477.00;;;10.62;89.05
17615;BME280;8926;49.720;6.576;2023-02-23T08:35:31;99475.56;;;10.71;88.78
17615;BME280;8926;49.720;6.576;2023-02-23T08:37:57;99471.94;;;10.73;88.09
17615;BME280;8926;49.720;6.576;2023-02-23T08:40:22;99475.47;;;10.72;88.37
17615;BME280;8926;49.720;6.576;2023-02-23T08:42:47;99480.50;;;10.75;88.54
17615;BME280;8926;49.720;6.576;2023-02-23T08:45:13;99479.50;;;10.78;88.36
17615;BME280;8926;49.720;6.576;2023-02-23T08:47:39;99478.84;;;10.74;88.54
17615;BME280;8926;49.720;6.576;2023-02-23T08:50:05;99472.78;;;10.74;88.84
17615;BME280;8926;49.720;6.576;2023-02-23T08:52:30;99482.19;;;10.76;89.99
17615;BME280;8926;49.720;6.576;2023-02-23T08:54:55;99476.41;;;10.85;88.52
17615;BME280;8926;49.720;6.576;2023-02-23T08:57:21;99483.50;;;10.83;89.50
17615;BME280;8926;49.720;6.576;2023-02-23T08:59:47;99481.44;;;10.88;87.93
17615;BME280;8926;49.720;6.576;2023-02-23T09:02:13;99483.31;;;10.86;87.97
17615;BME280;8926;49.720;6.576;2023-02-23T09:04:39;99483.69;;;10.80;88.13
17615;BME280;8926;49.720;6.576;2023-02-23T09:07:09;99482.19;;;10.76;88.61
17615;BME280;8926;49.720;6.576;2023-02-23T09:09:37;99486.41;;;10.79;88.73
17615;BME280;8926;49.720;6.576;2023-02-23T09:12:03;99482.00;;;10.79;88.69
17615;BME280;8926;49.720;6.576;2023-02-23T09:14:28;99479.31;;;10.81;88.63
17615;BME280;8926;49.720;6.576;2023-02-23T09:16:54;99478.38;;;10.82;88.72
17615;BME280;8926;49.720;6.576;2023-02-23T09:19:19;99485.19;;;10.84;88.28
17615;BME280;8926;49.720;6.576;2023-02-23T09:21:45;99488.91;;;10.80;88.41
17615;BME280;8926;49.720;6.576;2023-02-23T09:24:10;99487.25;;;10.79;88.50
17615;BME280;8926;49.720;6.576;2023-02-23T09:26:36;99494.16;;;10.80;88.18
17615;BME280;8926;49.720;6.576;2023-02-23T09:29:05;99489.00;;;10.79;88.63
17615;BME280;8926;49.720;6.576;2023-02-23T09:31:31;99501.22;;;10.78;88.68
17615;BME280;8926;49.720;6.576;2023-02-23T09:33:56;99496.00;;;10.78;89.03
17615;BME280;8926;49.720;6.576;2023-02-23T09:36:24;99501.97;;;10.80;89.51
17615;BME280;8926;49.720;6.576;2023-02-23T09:38:52;99505.06;;;10.87;89.66
17615;BME280;8926;49.720;6.576;2023-02-23T09:47:12;99513.53;;;11.05;89.11
17615;BME280;8926;49.720;6.576;2023-02-23T09:49:44;99522.13;;;11.07;88.80
17615;BME280;8926;49.720;6.576;2023-02-23T09:52:17;99521.19;;;11.08;87.91
17615;BME280;8926;49.720;6.576;2023-02-23T09:54:43;99524.53;;;11.10;88.56
17615;BME280;8926;49.720;6.576;2023-02-23T09:57:15;99533.88;;;11.14;87.95
17615;BME280;8926;49.720;6.576;2023-02-23T09:59:42;99530.53;;;11.12;87.30
17615;BME280;8926;49.720;6.576;2023-02-23T10:04:48;99539.09;;;11.14;87.46
17615;BME280;8926;49.720;6.576;2023-02-23T10:07:38;99532.38;;;11.10;87.56
17615;BME280;8926;49.720;6.576;2023-02-23T10:10:40;99537.63;;;11.10;87.30
17615;BME280;8926;49.720;6.576;2023-02-23T10:16:03;99535.75;;;11.12;86.87
17615;BME280;8926;49.720;6.576;2023-02-23T10:18:45;99540.13;;;11.11;87.30
17615;BME280;8926;49.720;6.576;2023-02-23T10:21:20;99535.00;;;11.10;87.14
17615;BME280;8926;49.720;6.576;2023-02-23T10:23:51;99537.53;;;11.11;86.70
17615;BME280;8926;49.720;6.576;2023-02-23T10:26:23;99534.53;;;11.03;87.08
17615;BME280;8926;49.720;6.576;2023-02-23T10:28:55;99540.78;;;11.01;87.39
17615;BME280;8926;49.720;6.576;2023-02-23T10:31:39;99536.69;;;10.97;87.33
17615;BME280;8926;49.720;6.576;2023-02-23T10:34:12;99540.03;;;10.99;87.63
17615;BME280;8926;49.720;6.576;2023-02-23T10:36:50;99540.03;;;10.99;87.64
17615;BME280;8926;49.720;6.576;2023-02-23T10:39:17;99537.25;;;11.02;87.84
17615;BME280;8926;49.720;6.576;2023-02-23T10:41:43;99549.28;;;11.04;87.45
17615;BME280;8926;49.720;6.576;2023-02-23T10:44:17;99547.69;;;11.02;87.72
17615;BME280;8926;49.720;6.576;2023-02-23T10:46:45;99552.00;;;11.03;87.36
17615;BME280;8926;49.720;6.576;2023-02-23T10:49:20;99550.31;;;11.02;87.95
17615;BME280;8926;49.720;6.576;2023-02-23T10:51:47;99553.66;;;11.04;88.62
17615;BME280;8926;49.720;6.576;2023-02-23T10:57:11;99560.88;;;11.14;87.81
17615;BME280;8926;49.720;6.576;2023-02-23T11:02:28;99555.69;;;11.27;87.51
17615;BME280;8926;49.720;6.576;2023-02-23T11:04:56;99551.13;;;11.31;87.78
17615;BME280;8926;49.720;6.576;2023-02-23T11:07:26;99544.47;;;11.39;88.06
17615;BME280;8926;49.720;6.576;2023-02-23T11:10:25;99549.09;;;11.48;87.79
17615;BME280;8926;49.720;6.576;2023-02-23T11:12:51;99551.88;;;11.60;87.27
17615;BME280;8926;49.720;6.576;2023-02-23T11:17:54;99551.31;;;11.69;86.81
17615;BME280;8926;49.720;6.576;2023-02-23T11:20:27;99550.47;;;11.68;86.79
17615;BME280;8926;49.720;6.576;2023-02-23T11:22:53;99549.63;;;11.68;86.77
17615;BME280;8926;49.720;6.576;2023-02-23T11:25:42;99549.41;;;11.71;86.51
17615;BME280;8926;49.720;6.576;2023-02-23T11:28:17;99545.84;;;11.72;86.25
17615;BME280;8926;49.720;6.576;2023-02-23T11:30:46;99541.94;;;11.79;86.15
17615;BME280;8926;49.720;6.576;2023-02-23T11:33:21;99545.84;;;11.86;86.04
17615;BME280;8926;49.720;6.576;2023-02-23T11:35:56;99542.09;;;11.90;85.45
17615;BME280;8926;49.720;6.576;2023-02-23T11:38:25;99543.22;;;11.86;85.56
17615;BME280;8926;49.720;6.576;2023-02-23T11:41:21;99536.13;;;11.88;85.48
17615;BME280;8926;49.720;6.576;2023-02-23T11:43:48;99534.03;;;11.93;85.53
17615;BME280;8926;49.720;6.576;2023-02-23T11:46:14;99537.78;;;11.89;85.37
17615;BME280;8926;49.720;6.576;2023-02-23T11:48:51;99535.91;;;11.91;85.81
17615;BME280;8926;49.720;6.576;2023-02-23T11:51:33;99529.66;;;11.94;85.12
17615;BME280;8926;49.720;6.576;2023-02-23T11:54:01;99528.16;;;11.89;84.73
17615;BME280;8926;49.720;6.576;2023-02-23T11:56:28;99527.72;;;11.83;84.91
17615;BME280;8926;49.720;6.576;2023-02-23T11:59:02;99520.81;;;11.82;85.49
17615;BME280;8926;49.720;6.576;2023-02-23T12:01:36;99521.00;;;11.79;84.84
17615;BME280;8926;49.720;6.576;2023-02-23T12:04:03;99524.72;;;11.75;85.06
17615;BME280;8926;49.720;6.576;2023-02-23T12:06:30;99525.84;;;11.71;85.41
17615;BME280;8926;49.720;6.576;2023-02-23T12:09:02;99521.56;;;11.70;85.88
17615;BME280;8926;49.720;6.576;2023-02-23T12:11:33;99516.31;;;11.70;85.76
17615;BME280;8926;49.720;6.576;2023-02-23T12:14:13;99524.91;;;11.72;85.72
17615;BME280;8926;49.720;6.576;2023-02-23T12:16:47;99517.66;;;11.77;85.51
17615;BME280;8926;49.720;6.576;2023-02-23T12:19:38;99518.75;;;11.73;86.49
17615;BME280;8926;49.720;6.576;2023-02-23T12:22:19;99514.25;;;11.75;86.56
17615;BME280;8926;49.720;6.576;2023-02-23T12:24:51;99519.13;;;11.81;86.14
17615;BME280;8926;49.720;6.576;2023-02-23T12:27:35;99516.59;;;11.79;86.50
17615;BME280;8926;49.720;6.576;2023-02-23T12:30:15;99508.66;;;11.81;86.59
17615;BME280;8926;49.720;6.576;2023-02-23T12:33:09;99503.22;;;11.84;86.25
17615;BME280;8926;49.720;6.576;2023-02-23T12:35:48;99505.66;;;11.87;86.29
17615;BME280;8926;49.720;6.576;2023-02-23T12:40:51;99506.00;;;11.95;87.34
17615;BME280;8926;49.720;6.576;2023-02-23T12:43:36;99494.69;;;12.07;86.69
17615;BME280;8926;49.720;6.576;2023-02-23T12:46:05;99501.94;;;12.16;85.87
17615;BME280;8926;49.720;6.576;2023-02-23T12:51:17;99494.09;;;12.42;83.40
17615;BME280;8926;49.720;6.576;2023-02-23T12:53:44;99495.13;;;12.52;83.16
17615;BME280;8926;49.720;6.576;2023-02-23T13:02:02;99484.28;;;12.82;81.38
17615;BME280;8926;49.720;6.576;2023-02-23T13:07:21;99477.16;;;13.33;79.07
17615;BME280;8926;49.720;6.576;2023-02-23T13:10:29;99469.34;;;13.44;79.03
17615;BME280;8926;49.720;6.576;2023-02-23T13:15:32;99471.66;;;13.49;76.39
17615;BME280;8926;49.720;6.576;2023-02-23T13:18:25;99475.81;;;13.51;76.85
17615;BME280;8926;49.720;6.576;2023-02-23T13:21:01;99471.66;;;13.49;75.33
17615;BME280;8926;49.720;6.576;2023-02-23T13:23:40;99468.91;;;13.50;76.19
17615;BME280;8926;49.720;6.576;2023-02-23T13:31:47;99466.00;;;13.42;74.92
17615;BME280;8926;49.720;6.576;2023-02-23T13:34:24;99463.50;;;13.41;75.37
17615;BME280;8926;49.720;6.576;2023-02-23T13:36:51;99455.72;;;13.39;76.06
17615;BME280;8926;49.720;6.576;2023-02-23T13:50:32;99460.69;;;13.31;76.46
17615;BME280;8926;49.720;6.576;2023-02-23T13:53:02;99455.31;;;13.33;76.27
17615;BME280;8926;49.720;6.576;2023-02-23T13:55:44;99457.00;;;13.34;76.70
17615;BME280;8926;49.720;6.576;2023-02-23T13:58:32;99463.81;;;13.36;77.15
17615;BME280;8926;49.720;6.576;2023-02-23T14:03:38;99464.75;;;13.35;77.05
17615;BME280;8926;49.720;6.576;2023-02-23T14:06:05;99457.00;;;13.34;76.44
17615;BME280;8926;49.720;6.576;2023-02-23T14:08:35;99468.13;;;13.37;76.17
17615;BME280;8926;49.720;6.576;2023-02-23T14:11:02;99455.94;;;13.36;76.32
17615;BME280;8926;49.720;6.576;2023-02-23T14:13:34;99462.66;;;13.40;76.74
17615;BME280;8926;49.720;6.576;2023-02-23T14:18:33;99452.16;;;13.40;75.85
17615;BME280;8926;49.720;6.576;2023-02-23T14:21:21;99451.94;;;13.43;75.62
17615;BME280;8926;49.720;6.576;2023-02-23T14:24:11;99452.81;;;13.31;74.20
17615;BME280;8926;49.720;6.576;2023-02-23T14:26:41;99458.63;;;13.23;74.56
17615;BME280;8926;49.720;6.576;2023-02-23T14:29:23;99445.94;;;13.17;73.21
17615;BME280;8926;49.720;6.576;2023-02-23T14:34:20;99455.38;;;13.20;75.04
17615;BME280;8926;49.720;6.576;2023-02-23T14:36:47;99458.75;;;13.22;74.35
17615;BME280;8926;49.720;6.576;2023-02-23T14:39:22;99457.06;;;13.21;74.21
17615;BME280;8926;49.720;6.576;2023-02-23T14:41:57;99461.69;;;13.17;73.80
17615;BME280;8926;49.720;6.576;2023-02-23T14:44:30;99468.63;;;13.18;74.39
17615;BME280;8926;49.720;6.576;2023-02-23T14:47:06;99464.94;;;13.21;74.26
17615;BME280;8926;49.720;6.576;2023-02-23T14:49:36;99461.38;;;13.22;73.92
17615;BME280;8926;49.720;6.576;2023-02-23T14:52:34;99464.81;;;13.22;74.38
17615;BME280;8926;49.720;6.576;2023-02-23T14:57:36;99460.41;;;13.23;74.64
17615;BME280;8926;49.720;6.576;2023-02-23T15:02:39;99452.19;;;13.28;75.67
17615;BME280;8926;49.720;6.576;2023-02-23T15:05:15;99454.09;;;13.25;75.33
17615;BME280;8926;49.720;6.576;2023-02-23T15:07:40;99454.22;;;13.24;75.73
17615;BME280;8926;49.720;6.576;2023-02-23T15:10:09;99462.31;;;13.21;75.38
17615;BME280;8926;49.720;6.576;2023-02-23T15:12:37;99467.03;;;13.16;75.87